createdAt,value
2022-12-19T00:00:30.999Z,26.27
2022-12-19T00:02:59.076Z,28.43
2022-12-19T00:05:27.096Z,27.27
2022-12-19T00:07:56.342Z,22.03
2022-12-19T00:10:25.689Z,29.40
2022-12-19T00:12:53.434Z,29.47
2022-12-19T00:15:21.221Z,26.53
2022-12-19T00:17:49.012Z,26.03
2022-12-19T00:20:18.512Z,21.77
2022-12-19T00:22:46.534Z,25.90
2022-12-19T00:25:15.843Z,26.80
2022-12-19T00:27:43.858Z,29.87
2022-12-19T00:30:12.951Z,28.73
2022-12-19T00:32:40.679Z,20.30
2022-12-19T00:35:08.785Z,28.23
2022-12-19T00:37:38.423Z,25.77
2022-12-19T00:40:10.639Z,29.60
2022-12-19T00:42:39.773Z,26.27
2022-12-19T00:45:08.289Z,27.77
2022-12-19T00:47:36.182Z,26.40
2022-12-19T00:50:04.493Z,26.40
2022-12-19T00:52:32.258Z,23.23
2022-12-19T00:55:01.725Z,29.10
2022-12-19T00:57:31.298Z,28.03
2022-12-19T01:00:00.515Z,25.70
2022-12-19T01:02:28.488Z,30.67
2022-12-19T01:04:56.233Z,30.70
2022-12-19T01:07:24.082Z,24.60
2022-12-19T01:09:51.815Z,30.47
2022-12-19T01:12:37.262Z,27.27
2022-12-19T01:15:07.443Z,20.27
2022-12-19T01:17:43.821Z,20.33
2022-12-19T01:20:12.808Z,31.73
2022-12-19T01:22:40.843Z,27.23
2022-12-19T01:25:08.972Z,32.70
2022-12-19T01:27:36.773Z,20.90
2022-12-19T01:30:07.375Z,21.30
2022-12-19T01:32:36.050Z,27.70
2022-12-19T01:35:03.919Z,25.00
2022-12-19T01:37:31.775Z,25.93
2022-12-19T01:39:59.587Z,28.13
2022-12-19T01:42:27.230Z,30.23
2022-12-19T01:45:34.570Z,30.60
2022-12-19T01:48:12.277Z,23.50
2022-12-19T01:50:43.297Z,31.47
2022-12-19T01:53:21.292Z,25.43
2022-12-19T01:55:48.999Z,26.43
2022-12-19T01:58:16.889Z,31.10
2022-12-19T02:00:46.157Z,26.57
2022-12-19T02:03:16.194Z,32.27
2022-12-19T02:05:44.160Z,34.50
2022-12-19T02:08:11.893Z,26.37
2022-12-19T02:10:39.671Z,29.23
2022-12-19T02:13:07.335Z,26.47
2022-12-19T02:15:39.341Z,18.27
2022-12-19T02:18:11.171Z,24.80
2022-12-19T02:20:53.323Z,24.37
2022-12-19T02:23:35.063Z,28.47
2022-12-19T02:26:12.005Z,27.00
2022-12-19T02:29:01.776Z,21.60
2022-12-19T02:31:31.730Z,26.60
2022-12-19T02:34:04.370Z,23.77
2022-12-19T02:36:38.685Z,28.37
2022-12-19T02:39:09.277Z,26.13
2022-12-19T02:41:43.302Z,16.97
2022-12-19T02:44:15.847Z,27.87
2022-12-19T02:46:45.284Z,29.07
2022-12-19T02:49:12.993Z,25.70
2022-12-19T02:51:47.105Z,24.63
2022-12-19T02:54:14.831Z,20.03
2022-12-19T02:56:46.365Z,22.33
2022-12-19T02:59:24.675Z,18.03
2022-12-19T03:01:54.876Z,20.73
2022-12-19T03:04:29.855Z,23.23
2022-12-19T03:07:02.118Z,19.90
2022-12-19T03:09:33.638Z,23.80
2022-12-19T03:12:03.862Z,27.40
2022-12-19T03:14:31.709Z,24.83
2022-12-19T03:17:05.683Z,18.20
2022-12-19T03:19:34.168Z,29.17
2022-12-19T03:22:01.985Z,24.93
2022-12-19T03:24:29.703Z,21.10
2022-12-19T03:26:58.757Z,20.60
2022-12-19T03:29:28.460Z,27.40
2022-12-19T03:31:56.567Z,25.53
2022-12-19T03:34:27.170Z,20.97
2022-12-19T03:36:56.573Z,18.83
2022-12-19T03:39:24.892Z,18.10
2022-12-19T03:42:10.155Z,28.00
2022-12-19T03:44:40.636Z,22.77
2022-12-19T03:47:11.210Z,26.10
2022-12-19T03:49:40.423Z,23.30
2022-12-19T03:52:12.936Z,25.97
2022-12-19T03:54:41.601Z,23.83
2022-12-19T03:57:10.972Z,24.43
2022-12-19T03:59:41.184Z,26.10
2022-12-19T04:02:09.216Z,24.23
2022-12-19T04:04:38.095Z,28.30
2022-12-19T04:07:07.175Z,25.07
2022-12-19T04:09:34.963Z,30.43
2022-12-19T04:12:04.478Z,26.07
2022-12-19T04:14:33.376Z,29.63
2022-12-19T04:17:05.641Z,27.50
2022-12-19T04:19:41.073Z,23.50
2022-12-19T04:22:13.161Z,23.07
2022-12-19T04:24:41.671Z,24.10
2022-12-19T04:27:09.603Z,27.60
2022-12-19T04:29:38.015Z,27.00
2022-12-19T04:32:06.368Z,33.37
2022-12-19T04:34:36.802Z,28.50
2022-12-19T04:37:06.710Z,26.97
2022-12-19T04:39:35.780Z,25.03
2022-12-19T04:42:03.443Z,25.90
2022-12-19T04:44:31.184Z,29.57
2022-12-19T04:46:58.879Z,25.57
2022-12-19T04:49:26.770Z,30.90
2022-12-19T04:51:54.588Z,24.17
2022-12-19T04:54:22.836Z,29.80
2022-12-19T04:56:51.903Z,22.13
2022-12-19T04:59:19.594Z,26.37
2022-12-19T05:01:47.305Z,26.37
2022-12-19T05:04:15.087Z,18.30
2022-12-19T05:06:42.751Z,25.50
2022-12-19T05:09:11.277Z,29.70
2022-12-19T05:11:39.196Z,27.90
2022-12-19T05:14:09.358Z,22.10
2022-12-19T05:16:37.345Z,22.77
2022-12-19T05:19:08.264Z,30.03
2022-12-19T05:21:35.977Z,34.00
2022-12-19T05:24:41.837Z,22.80
2022-12-19T05:27:09.655Z,22.57
2022-12-19T05:29:39.048Z,21.60
2022-12-19T05:32:07.055Z,24.83
2022-12-19T05:34:34.913Z,31.60
2022-12-19T05:37:03.541Z,22.03
2022-12-19T05:39:35.018Z,21.60
2022-12-19T05:42:02.731Z,23.77
2022-12-19T05:44:30.584Z,27.63
2022-12-19T05:47:00.858Z,29.27
2022-12-19T05:49:28.655Z,31.67
2022-12-19T05:51:56.384Z,21.23
2022-12-19T05:54:24.255Z,25.67
2022-12-19T05:56:51.949Z,27.27
2022-12-19T05:59:19.637Z,26.13
2022-12-19T06:01:47.633Z,31.50
2022-12-19T06:04:17.129Z,21.63
2022-12-19T06:06:45.620Z,28.07
2022-12-19T06:09:13.567Z,28.93
2022-12-19T06:11:41.499Z,25.50
2022-12-19T06:14:09.477Z,25.23
2022-12-19T06:16:37.326Z,24.47
2022-12-19T06:19:05.264Z,18.00
2022-12-19T06:21:34.699Z,27.33
2022-12-19T06:24:02.585Z,28.87
2022-12-19T06:26:31.162Z,25.83
2022-12-19T06:28:58.996Z,14.47
2022-12-19T06:31:26.932Z,26.63
2022-12-19T06:33:55.791Z,24.93
2022-12-19T06:36:24.323Z,25.50
2022-12-19T06:39:00.741Z,22.97
2022-12-19T06:41:45.978Z,26.17
2022-12-19T06:44:27.103Z,21.80
2022-12-19T06:46:55.007Z,24.90
2022-12-19T06:49:23.135Z,26.53
2022-12-19T06:51:51.127Z,26.30
2022-12-19T06:54:20.385Z,24.27
2022-12-19T06:56:48.334Z,20.57
2022-12-19T06:59:17.040Z,27.17
2022-12-19T07:01:52.598Z,25.30
2022-12-19T07:04:23.895Z,24.43
2022-12-19T07:06:51.904Z,20.80
2022-12-19T07:09:22.223Z,30.90
2022-12-19T07:11:50.052Z,26.03
2022-12-19T07:14:19.033Z,27.63
2022-12-19T07:16:47.861Z,24.30
2022-12-19T07:19:16.024Z,27.90
2022-12-19T07:21:44.209Z,22.67
2022-12-19T07:24:12.491Z,12.57
2022-12-19T07:26:42.211Z,21.77
2022-12-19T07:29:10.292Z,28.23
2022-12-19T07:31:38.987Z,16.33
2022-12-19T07:34:07.540Z,16.80
2022-12-19T07:36:36.069Z,20.37
2022-12-19T07:39:10.601Z,23.40
2022-12-19T07:41:38.652Z,20.70
2022-12-19T07:44:08.715Z,24.53
2022-12-19T07:46:36.835Z,22.97
2022-12-19T07:49:04.584Z,22.77
2022-12-19T07:51:32.550Z,25.23
2022-12-19T07:54:00.426Z,17.97
2022-12-19T07:56:29.130Z,19.90
2022-12-19T07:58:57.325Z,21.17
2022-12-19T08:01:38.301Z,23.57
2022-12-19T08:04:06.473Z,26.77
2022-12-19T08:06:40.585Z,21.40
2022-12-19T08:09:11.256Z,25.80
2022-12-19T08:11:39.660Z,17.47
2022-12-19T08:14:08.018Z,24.60
2022-12-19T08:17:03.203Z,21.47
2022-12-19T08:19:30.831Z,18.13
2022-12-19T08:21:59.498Z,25.60
2022-12-19T08:24:28.016Z,23.73
2022-12-19T08:26:55.931Z,20.70
2022-12-19T08:29:40.704Z,18.77
2022-12-19T08:32:11.579Z,17.37
2022-12-19T08:34:45.173Z,24.53
2022-12-19T08:37:13.727Z,22.43
2022-12-19T08:39:47.285Z,20.60
2022-12-19T08:42:28.751Z,20.03
2022-12-19T08:44:56.580Z,23.07
2022-12-19T08:47:25.779Z,22.83
2022-12-19T08:49:53.458Z,24.03
2022-12-19T08:52:27.930Z,21.20
2022-12-19T08:54:55.500Z,21.87
2022-12-19T08:57:23.236Z,18.77
2022-12-19T08:59:50.816Z,14.70
2022-12-19T09:02:19.836Z,25.63
2022-12-19T09:06:00.383Z,18.27
2022-12-19T09:07:38.627Z,21.93
2022-12-19T09:10:07.842Z,21.90
2022-12-19T09:12:35.561Z,20.00
2022-12-19T09:15:03.163Z,22.37
2022-12-19T09:17:35.138Z,12.73
2022-12-19T09:20:04.463Z,20.13
2022-12-19T09:22:32.305Z,23.80
2022-12-19T09:25:00.021Z,21.53
2022-12-19T09:27:27.881Z,21.93
2022-12-19T09:29:55.559Z,15.27
2022-12-19T09:32:23.347Z,19.27
2022-12-19T09:34:50.903Z,15.50
2022-12-19T09:37:20.144Z,17.43
2022-12-19T09:39:47.847Z,15.87
2022-12-19T09:42:41.606Z,17.83
2022-12-19T09:45:33.698Z,13.93
2022-12-19T09:48:01.971Z,22.00
2022-12-19T09:50:37.140Z,17.03
2022-12-19T09:53:08.401Z,12.90
2022-12-19T09:55:37.400Z,21.77
2022-12-19T09:58:09.029Z,18.10
2022-12-19T10:00:38.351Z,16.13
2022-12-19T10:03:13.201Z,14.87
2022-12-19T10:06:34.564Z,18.40
2022-12-19T10:08:32.647Z,19.50
2022-12-19T10:12:40.012Z,18.47
2022-12-19T10:14:15.424Z,17.17
2022-12-19T10:17:08.880Z,19.03
2022-12-19T10:19:43.578Z,16.13
2022-12-19T10:22:19.820Z,16.97
2022-12-19T10:25:09.661Z,18.03
2022-12-19T10:27:57.237Z,17.60
2022-12-19T10:30:29.041Z,16.17
2022-12-19T10:33:03.987Z,18.00
2022-12-19T10:35:35.547Z,17.47
2022-12-19T10:38:13.425Z,18.57
2022-12-19T10:40:44.115Z,15.23
2022-12-19T10:43:19.142Z,16.30
2022-12-19T10:45:55.259Z,11.47
2022-12-19T10:48:30.383Z,16.57
2022-12-19T10:51:05.183Z,15.83
2022-12-19T10:53:34.766Z,15.10
2022-12-19T10:56:04.489Z,17.23
2022-12-19T10:58:34.341Z,15.33
2022-12-19T11:01:07.129Z,17.57
2022-12-19T11:03:35.193Z,13.83
2022-12-19T11:06:03.572Z,16.70
2022-12-19T11:08:31.840Z,16.77
2022-12-19T11:12:25.651Z,17.13
2022-12-19T11:20:33.705Z,18.67
2022-12-19T11:22:27.460Z,18.83
2022-12-19T11:27:41.073Z,17.07
2022-12-19T11:29:37.687Z,17.27
2022-12-19T11:30:09.081Z,13.97
2022-12-19T11:30:49.021Z,13.40
2022-12-19T11:33:54.751Z,14.63
2022-12-19T11:36:30.161Z,13.53
2022-12-19T11:38:57.767Z,12.23
2022-12-19T11:41:30.498Z,14.67
2022-12-19T11:44:02.013Z,15.30
2022-12-19T11:46:37.284Z,18.43
2022-12-19T11:49:06.859Z,17.63
2022-12-19T11:51:39.945Z,16.87
2022-12-19T11:54:11.172Z,13.17
2022-12-19T11:56:40.257Z,14.97
2022-12-19T11:59:14.064Z,14.57
2022-12-19T12:01:55.393Z,11.43
2022-12-19T12:04:56.832Z,11.70
2022-12-19T12:08:02.687Z,14.13
2022-12-19T12:17:11.837Z,15.53
2022-12-19T12:21:17.190Z,12.60
2022-12-19T12:25:44.511Z,12.27
2022-12-19T12:31:05.749Z,14.33
2022-12-19T12:31:39.253Z,13.33
2022-12-19T12:31:41.323Z,14.43
2022-12-19T12:31:51.875Z,12.20
2022-12-19T12:31:52.363Z,12.43
2022-12-19T12:35:36.476Z,14.37
2022-12-19T12:39:24.313Z,14.20
2022-12-19T12:42:06.252Z,12.67
2022-12-19T12:44:41.134Z,11.70
2022-12-19T12:47:17.004Z,12.10
2022-12-19T12:49:46.950Z,15.10
2022-12-19T12:52:16.269Z,15.37
2022-12-19T12:54:47.031Z,13.47
2022-12-19T12:57:34.741Z,12.97
2022-12-19T13:00:35.851Z,12.13
2022-12-19T13:03:05.381Z,13.93
2022-12-19T13:05:53.670Z,12.33
2022-12-19T13:08:46.613Z,13.13
2022-12-19T13:11:36.002Z,8.47
2022-12-19T13:14:03.759Z,11.40
2022-12-19T13:16:53.010Z,9.87
2022-12-19T13:19:27.914Z,16.27
2022-12-19T13:22:19.217Z,7.80
2022-12-19T13:24:47.529Z,10.00
2022-12-19T13:27:33.922Z,12.27
2022-12-19T13:30:29.078Z,12.93
2022-12-19T13:33:11.076Z,8.97
2022-12-19T13:36:56.619Z,13.63
2022-12-19T13:40:01.199Z,14.07
2022-12-19T13:41:47.036Z,19.07
2022-12-19T13:44:14.806Z,11.67
2022-12-19T13:46:43.124Z,9.87
2022-12-19T13:49:13.124Z,10.70
2022-12-19T13:51:46.934Z,13.37
2022-12-19T13:54:23.809Z,11.27
2022-12-19T13:56:52.077Z,11.33
2022-12-19T13:59:20.149Z,11.60
2022-12-19T14:01:48.167Z,10.00
2022-12-19T14:04:27.331Z,10.93
2022-12-19T14:06:58.495Z,10.43
2022-12-19T14:11:28.094Z,11.07
2022-12-19T14:13:55.601Z,10.93
2022-12-19T14:15:32.196Z,13.27
2022-12-19T14:18:43.212Z,11.17
2022-12-19T14:22:09.845Z,11.73
2022-12-19T14:23:43.319Z,12.77
2022-12-19T14:28:25.081Z,9.40
2022-12-19T14:29:04.618Z,14.07
2022-12-19T14:31:33.117Z,12.87
2022-12-19T14:36:49.534Z,12.37
2022-12-19T14:39:24.218Z,14.27
2022-12-19T14:43:38.959Z,11.23
2022-12-19T14:53:17.581Z,13.20
2022-12-19T14:54:09.037Z,11.07
2022-12-19T14:54:35.863Z,12.43
2022-12-19T14:57:29.142Z,10.70
2022-12-19T15:00:51.557Z,9.17
2022-12-19T15:03:16.936Z,10.90
2022-12-19T15:05:45.476Z,9.60
2022-12-19T15:08:13.766Z,8.70
2022-12-19T15:11:04.924Z,9.27
2022-12-19T15:14:48.563Z,8.20
2022-12-19T15:16:25.591Z,10.77
2022-12-19T15:18:58.700Z,13.00
2022-12-19T15:21:26.560Z,7.80
2022-12-19T15:23:54.239Z,11.30
2022-12-19T15:26:28.467Z,10.50
2022-12-19T15:29:00.858Z,10.43
2022-12-19T15:31:32.363Z,7.57
2022-12-19T15:34:33.691Z,9.37
2022-12-19T15:36:47.923Z,8.07
2022-12-19T15:39:16.035Z,12.90
2022-12-19T15:41:44.024Z,10.60
2022-12-19T15:44:17.561Z,9.70
2022-12-19T15:46:49.067Z,9.73
2022-12-19T15:49:17.879Z,8.10
2022-12-19T15:51:45.743Z,8.97
2022-12-19T15:57:01.356Z,9.63
2022-12-19T15:59:38.038Z,8.00
2022-12-19T16:02:15.800Z,8.90
2022-12-19T16:04:43.987Z,8.17
2022-12-19T16:07:15.338Z,7.47
2022-12-19T16:09:42.988Z,8.10
2022-12-19T16:12:11.813Z,8.40
2022-12-19T16:14:40.871Z,8.07
2022-12-19T16:17:12.190Z,7.47
2022-12-19T16:19:41.185Z,8.57
2022-12-19T16:22:15.931Z,8.93
2022-12-19T16:24:43.923Z,8.47
2022-12-19T16:27:11.666Z,10.60
2022-12-19T16:29:41.969Z,6.30
2022-12-19T16:32:11.230Z,7.63
2022-12-19T16:34:38.876Z,6.13
2022-12-19T16:37:07.798Z,7.90
2022-12-19T16:39:35.459Z,7.77
2022-12-19T16:42:04.306Z,7.97
2022-12-19T16:44:32.610Z,6.90
2022-12-19T16:47:01.863Z,6.47
2022-12-19T16:49:29.600Z,8.93
2022-12-19T16:51:57.261Z,6.97
2022-12-19T16:54:24.994Z,7.00
2022-12-19T16:56:53.672Z,7.70
2022-12-19T16:59:22.153Z,7.13
2022-12-19T17:01:51.111Z,6.07
2022-12-19T17:04:21.492Z,6.40
2022-12-19T17:06:49.785Z,6.77
2022-12-19T17:09:18.229Z,5.43
2022-12-19T17:11:46.772Z,6.33
2022-12-19T17:14:16.770Z,6.60
2022-12-19T17:16:44.730Z,6.00
2022-12-19T17:19:12.821Z,7.40
2022-12-19T17:21:41.882Z,6.33
2022-12-19T17:24:12.051Z,6.37
2022-12-19T17:26:39.718Z,6.40
2022-12-19T17:29:07.391Z,6.23
2022-12-19T17:31:38.192Z,8.33
2022-12-19T17:34:08.131Z,5.30
2022-12-19T17:36:37.918Z,5.10
2022-12-19T17:39:15.748Z,7.70
2022-12-19T17:41:43.464Z,5.17
2022-12-19T17:44:11.561Z,8.97
2022-12-19T17:46:39.173Z,6.50
2022-12-19T17:49:06.946Z,7.37
2022-12-19T17:51:34.538Z,5.90
2022-12-19T17:54:02.153Z,6.47
2022-12-19T17:56:31.214Z,6.00
2022-12-19T17:58:58.797Z,7.00
2022-12-19T18:01:26.625Z,7.80
2022-12-19T18:03:56.064Z,7.37
2022-12-19T18:06:23.648Z,6.50
2022-12-19T18:08:51.407Z,5.37
2022-12-19T18:11:20.568Z,5.70
2022-12-19T18:13:50.764Z,6.47
2022-12-19T18:16:19.648Z,7.60
2022-12-19T18:18:47.583Z,6.23
2022-12-19T18:21:19.719Z,5.50
2022-12-19T18:23:47.592Z,6.33
2022-12-19T18:26:15.288Z,5.90
2022-12-19T18:28:43.280Z,6.23
2022-12-19T18:31:14.979Z,5.40
2022-12-19T18:33:45.348Z,8.50
2022-12-19T18:36:17.764Z,5.80
2022-12-19T18:38:45.517Z,5.77
2022-12-19T18:41:13.449Z,6.63
2022-12-19T18:43:41.181Z,5.83
2022-12-19T18:46:14.594Z,4.57
2022-12-19T18:48:42.540Z,5.73
2022-12-19T18:51:14.217Z,5.57
2022-12-19T18:53:42.011Z,6.93
2022-12-19T18:56:09.848Z,6.17
2022-12-19T18:58:37.656Z,6.37
2022-12-19T19:01:06.395Z,8.83
2022-12-19T19:03:36.433Z,6.43
2022-12-19T19:06:05.374Z,6.40
2022-12-19T19:08:33.981Z,12.93
2022-12-19T19:11:01.707Z,6.30
2022-12-19T19:13:29.426Z,8.20
2022-12-19T19:15:58.720Z,6.77
2022-12-19T19:18:29.812Z,5.83
2022-12-19T19:21:01.205Z,7.70
2022-12-19T19:23:30.693Z,6.10
2022-12-19T19:25:58.466Z,6.00
2022-12-19T19:28:26.202Z,5.93
2022-12-19T19:30:54.619Z,6.70
2022-12-19T19:33:23.587Z,5.53
2022-12-19T19:35:51.910Z,6.43
2022-12-19T19:38:20.958Z,5.70
2022-12-19T19:40:48.817Z,6.80
2022-12-19T19:43:16.521Z,7.67
2022-12-19T19:45:44.190Z,5.93
2022-12-19T19:48:12.002Z,5.40
2022-12-19T19:50:39.691Z,6.60
2022-12-19T19:53:07.402Z,5.77
2022-12-19T19:55:36.615Z,5.20
2022-12-19T19:58:04.202Z,6.70
2022-12-19T20:00:31.886Z,5.33
2022-12-19T20:03:03.641Z,5.73
2022-12-19T20:05:34.099Z,5.43
2022-12-19T20:08:01.830Z,4.80
2022-12-19T20:10:29.663Z,22.00
2022-12-19T20:12:58.759Z,19.57
2022-12-19T20:15:26.502Z,5.73
2022-12-19T20:17:57.806Z,5.40
2022-12-19T20:20:25.503Z,4.93
2022-12-19T20:22:53.272Z,5.67
2022-12-19T20:25:20.899Z,5.60
2022-12-19T20:27:48.464Z,4.97
2022-12-19T20:30:21.054Z,5.50
2022-12-19T20:32:48.804Z,5.87
2022-12-19T20:35:17.042Z,6.40
2022-12-19T20:37:44.858Z,5.87
2022-12-19T20:40:12.999Z,5.10
2022-12-19T20:42:40.689Z,5.57
2022-12-19T20:45:09.110Z,6.10
2022-12-19T20:47:38.013Z,5.43
2022-12-19T20:50:07.519Z,5.70
2022-12-19T20:52:36.847Z,6.80
2022-12-19T20:55:04.769Z,5.27
2022-12-19T20:57:32.445Z,6.03
2022-12-19T21:00:00.197Z,5.23
2022-12-19T21:02:28.194Z,6.70
2022-12-19T21:04:57.314Z,6.37
2022-12-19T21:07:25.408Z,4.77
2022-12-19T21:09:54.110Z,5.47
2022-12-19T21:12:24.108Z,8.37
2022-12-19T21:14:51.833Z,7.43
2022-12-19T21:17:19.657Z,5.53
2022-12-19T21:19:47.369Z,5.50
2022-12-19T21:24:44.255Z,7.10
2022-12-19T21:27:11.917Z,7.03
2022-12-19T21:29:39.608Z,5.80
2022-12-19T21:32:09.131Z,6.03
2022-12-19T21:34:39.211Z,6.80
2022-12-19T21:37:06.846Z,6.07
2022-12-19T21:39:34.611Z,6.50
2022-12-19T21:42:03.639Z,6.00
2022-12-19T21:44:31.485Z,5.77
2022-12-19T21:46:59.223Z,4.87
2022-12-19T21:49:27.087Z,4.43
2022-12-19T21:51:54.747Z,8.70
2022-12-19T21:54:22.586Z,6.10
2022-12-19T21:56:50.358Z,7.17
2022-12-19T21:59:19.419Z,6.10
2022-12-19T22:01:47.268Z,4.90
2022-12-19T22:04:17.613Z,4.97
2022-12-19T22:06:45.349Z,4.70
2022-12-19T22:09:14.085Z,4.93
2022-12-19T22:11:43.007Z,5.93
2022-12-19T22:14:12.268Z,5.17
2022-12-19T22:16:41.340Z,6.00
2022-12-19T22:19:09.073Z,6.10
2022-12-19T22:21:36.931Z,6.23
2022-12-19T22:24:04.751Z,6.93
2022-12-19T22:26:32.701Z,5.80
2022-12-19T22:29:00.436Z,5.60
2022-12-19T22:31:29.777Z,4.40
2022-12-19T22:34:00.126Z,5.20
2022-12-19T22:36:31.486Z,5.17
2022-12-19T22:38:59.960Z,5.10
2022-12-19T22:41:27.778Z,4.97
2022-12-19T22:43:55.587Z,8.07
2022-12-19T22:46:26.112Z,5.47
2022-12-19T22:48:54.104Z,5.60
2022-12-19T22:51:23.243Z,6.70
2022-12-19T22:53:50.873Z,5.63
2022-12-19T22:56:19.666Z,4.23
2022-12-19T22:58:48.843Z,5.03
2022-12-19T23:01:17.547Z,3.87
2022-12-19T23:03:45.859Z,6.40
2022-12-19T23:06:13.876Z,6.13
2022-12-19T23:08:42.910Z,8.17
2022-12-19T23:11:11.863Z,4.67
2022-12-19T23:13:39.581Z,3.90
2022-12-19T23:16:07.736Z,5.00
2022-12-19T23:18:35.350Z,3.67
2022-12-19T23:21:04.274Z,4.13
2022-12-19T23:23:39.327Z,4.17
2022-12-19T23:26:15.164Z,4.20
2022-12-19T23:28:43.384Z,4.03
2022-12-19T23:31:12.060Z,3.47
2022-12-19T23:33:39.647Z,3.90
2022-12-19T23:36:07.641Z,3.33
2022-12-19T23:38:35.220Z,3.80
2022-12-19T23:41:03.288Z,4.27
2022-12-19T23:43:32.474Z,3.53
2022-12-19T23:46:00.246Z,4.27
2022-12-19T23:48:28.349Z,2.70
2022-12-19T23:51:00.454Z,3.33
2022-12-19T23:53:28.323Z,2.90
2022-12-19T23:55:55.915Z,3.90
2022-12-19T23:58:24.893Z,5.83
